sensor_id;sensor_type;location;lat;lon;timestamp;pressure;altitude;pressure_sealevel;temperature;humidity
56182;BME280;51963;46.052;14.544;2022-12-18T00:00:41;99553.13;;;0.59;100.00
56182;BME280;51963;46.052;14.544;2022-12-18T00:03:07;99547.19;;;0.57;100.00
56182;BME280;51963;46.052;14.544;2022-12-18T00:05:33;99554.63;;;0.49;100.00
56182;BME280;51963;46.052;14.544;2022-12-18T00:07:58;99567.09;;;0.43;100.00
56182;BME280;51963;46.052;14.544;2022-12-18T00:10:25;99567.09;;;0.43;100.00
56182;BME280;51963;46.052;14.544;2022-12-18T00:12:50;99571.00;;;0.51;100.00
56182;BME280;51963;46.052;14.544;2022-12-18T00:15:16;99563.75;;;0.56;100.00
56182;BME280;51963;46.052;14.544;2022-12-18T00:17:42;99567.47;;;0.52;100.00
56182;BME280;51963;46.052;14.544;2022-12-18T00:20:08;99566.59;;;0.51;100.00
56182;BME280;51963;46.052;14.544;2022-12-18T00:22:34;99572.09;;;0.61;100.00
56182;BME280;51963;46.052;14.544;2022-12-18T00:24:59;99570.63;;;0.57;100.00
56182;BME280;51963;46.052;14.544;2022-12-18T00:27:25;99574.69;;;0.61;100.00
56182;BME280;51963;46.052;14.544;2022-12-18T00:29:51;99569.31;;;0.64;100.00
56182;BME280;51963;46.052;14.544;2022-12-18T00:32:17;99578.31;;;0.73;100.00
56182;BME280;51963;46.052;14.544;2022-12-18T00:34:42;99567.16;;;0.71;100.00
56182;BME280;51963;46.052;14.544;2022-12-18T00:37:09;99588.81;;;0.86;100.00
56182;BME280;51963;46.052;14.544;2022-12-18T00:39:34;99590.66;;;0.84;100.00
56182;BME280;51963;46.052;14.544;2022-12-18T00:42:00;99586.78;;;0.77;100.00
56182;BME280;51963;46.052;14.544;2022-12-18T00:44:44;99587.50;;;0.79;100.00
56182;BME280;51963;46.052;14.544;2022-12-18T00:47:10;99599.78;;;0.77;100.00
56182;BME280;51963;46.052;14.544;2022-12-18T00:49:36;99603.41;;;0.74;100.00
56182;BME280;51963;46.052;14.544;2022-12-18T00:52:01;99597.66;;;0.69;100.00
56182;BME280;51963;46.052;14.544;2022-12-18T00:54:27;99601.84;;;0.71;100.00
56182;BME280;51963;46.052;14.544;2022-12-18T00:56:53;99602.97;;;0.67;100.00
56182;BME280;51963;46.052;14.544;2022-12-18T00:59:20;99586.13;;;0.58;100.00
56182;BME280;51963;46.052;14.544;2022-12-18T01:01:46;99590.50;;;0.58;100.00
56182;BME280;51963;46.052;14.544;2022-12-18T01:04:12;99597.38;;;0.59;100.00
56182;BME280;51963;46.052;14.544;2022-12-18T01:06:38;99605.00;;;0.62;100.00
56182;BME280;51963;46.052;14.544;2022-12-18T01:09:04;99588.84;;;0.42;100.00
56182;BME280;51963;46.052;14.544;2022-12-18T01:11:29;99609.84;;;0.39;100.00
56182;BME280;51963;46.052;14.544;2022-12-18T01:13:55;99607.31;;;0.38;100.00
56182;BME280;51963;46.052;14.544;2022-12-18T01:16:22;99578.03;;;0.20;100.00
56182;BME280;51963;46.052;14.544;2022-12-18T01:18:51;99593.84;;;0.31;100.00
56182;BME280;51963;46.052;14.544;2022-12-18T01:21:18;99606.19;;;0.27;100.00
56182;BME280;51963;46.052;14.544;2022-12-18T01:23:44;99609.63;;;0.28;100.00
56182;BME280;51963;46.052;14.544;2022-12-18T01:26:13;99614.28;;;0.23;100.00
56182;BME280;51963;46.052;14.544;2022-12-18T01:28:39;99625.59;;;0.22;100.00
56182;BME280;51963;46.052;14.544;2022-12-18T01:33:38;99631.91;;;0.18;100.00
56182;BME280;51963;46.052;14.544;2022-12-18T01:36:05;99636.38;;;0.16;100.00
56182;BME280;51963;46.052;14.544;2022-12-18T01:38:31;99624.13;;;0.18;100.00
56182;BME280;51963;46.052;14.544;2022-12-18T01:40:59;99627.91;;;0.12;100.00
56182;BME280;51963;46.052;14.544;2022-12-18T01:46:15;99624.66;;;0.08;100.00
56182;BME280;51963;46.052;14.544;2022-12-18T01:48:42;99613.41;;;0.08;100.00
56182;BME280;51963;46.052;14.544;2022-12-18T01:51:09;99615.19;;;0.07;100.00
56182;BME280;51963;46.052;14.544;2022-12-18T01:53:37;99624.47;;;0.11;100.00
56182;BME280;51963;46.052;14.544;2022-12-18T01:56:04;99624.53;;;0.10;100.00
56182;BME280;51963;46.052;14.544;2022-12-18T02:01:07;99649.97;;;0.35;100.00
56182;BME280;51963;46.052;14.544;2022-12-18T02:03:33;99652.56;;;0.35;100.00
56182;BME280;51963;46.052;14.544;2022-12-18T02:08:46;99663.06;;;0.34;100.00
56182;BME280;51963;46.052;14.544;2022-12-18T02:11:20;99663.06;;;0.34;100.00
56182;BME280;51963;46.052;14.544;2022-12-18T02:14:11;99663.16;;;0.32;100.00
56182;BME280;51963;46.052;14.544;2022-12-18T02:17:03;99661.50;;;0.31;100.00
56182;BME280;51963;46.052;14.544;2022-12-18T02:28:06;99667.69;;;-0.02;100.00
56182;BME280;51963;46.052;14.544;2022-12-18T02:30:37;99676.13;;;-0.13;100.00
56182;BME280;51963;46.052;14.544;2022-12-18T02:33:06;99678.78;;;-0.15;100.00
56182;BME280;51963;46.052;14.544;2022-12-18T02:35:34;99685.00;;;-0.17;100.00
56182;BME280;51963;46.052;14.544;2022-12-18T02:38:03;99674.63;;;-0.17;100.00
56182;BME280;51963;46.052;14.544;2022-12-18T02:40:32;99670.75;;;-0.26;100.00
56182;BME280;51963;46.052;14.544;2022-12-18T02:43:15;99683.34;;;-0.18;100.00
56182;BME280;51963;46.052;14.544;2022-12-18T02:45:55;99667.00;;;-0.20;100.00
56182;BME280;51963;46.052;14.544;2022-12-18T02:48:31;99668.38;;;-0.15;100.00
56182;BME280;51963;46.052;14.544;2022-12-18T02:51:21;99677.34;;;-0.04;100.00
56182;BME280;51963;46.052;14.544;2022-12-18T02:53:53;99676.00;;;-0.11;100.00
56182;BME280;51963;46.052;14.544;2022-12-18T02:56:36;99682.13;;;-0.12;100.00
56182;BME280;51963;46.052;14.544;2022-12-18T02:59:12;99691.03;;;-0.17;100.00
56182;BME280;51963;46.052;14.544;2022-12-18T03:04:29;99696.00;;;-0.28;100.00
56182;BME280;51963;46.052;14.544;2022-12-18T03:06:58;99704.78;;;-0.15;100.00
56182;BME280;51963;46.052;14.544;2022-12-18T03:09:39;99699.25;;;-0.08;100.00
56182;BME280;51963;46.052;14.544;2022-12-18T03:12:15;99697.38;;;-0.06;100.00
56182;BME280;51963;46.052;14.544;2022-12-18T03:15:10;99707.31;;;0.03;100.00
56182;BME280;51963;46.052;14.544;2022-12-18T03:17:42;99687.66;;;-0.03;100.00
56182;BME280;51963;46.052;14.544;2022-12-18T03:20:14;99704.19;;;-0.04;100.00
56182;BME280;51963;46.052;14.544;2022-12-18T03:22:42;99702.59;;;-0.06;100.00
56182;BME280;51963;46.052;14.544;2022-12-18T03:25:12;99697.06;;;0.00;100.00
56182;BME280;51963;46.052;14.544;2022-12-18T03:27:46;99688.72;;;-0.21;100.00
56182;BME280;51963;46.052;14.544;2022-12-18T03:30:16;99700.84;;;-0.22;100.00
56182;BME280;51963;46.052;14.544;2022-12-18T03:32:48;99698.53;;;-0.26;100.00
56182;BME280;51963;46.052;14.544;2022-12-18T03:35:22;99691.41;;;-0.39;100.00
56182;BME280;51963;46.052;14.544;2022-12-18T03:37:51;99692.72;;;-0.16;100.00
56182;BME280;51963;46.052;14.544;2022-12-18T03:40:18;99696.75;;;-0.26;100.00
56182;BME280;51963;46.052;14.544;2022-12-18T03:42:49;99689.38;;;-0.34;100.00
56182;BME280;51963;46.052;14.544;2022-12-18T03:45:28;99701.19;;;-0.28;100.00
56182;BME280;51963;46.052;14.544;2022-12-18T03:48:12;99703.22;;;-0.33;100.00
56182;BME280;51963;46.052;14.544;2022-12-18T03:51:02;99714.28;;;-0.30;100.00
56182;BME280;51963;46.052;14.544;2022-12-18T03:53:52;99707.47;;;-0.32;100.00
56182;BME280;51963;46.052;14.544;2022-12-18T03:56:26;99712.03;;;-0.36;100.00
56182;BME280;51963;46.052;14.544;2022-12-18T03:58:56;99714.88;;;-0.40;100.00
56182;BME280;51963;46.052;14.544;2022-12-18T04:01:32;99727.97;;;-0.42;100.00
56182;BME280;51963;46.052;14.544;2022-12-18T04:04:00;99734.31;;;-0.48;100.00
56182;BME280;51963;46.052;14.544;2022-12-18T04:06:29;99744.88;;;-0.51;100.00
56182;BME280;51963;46.052;14.544;2022-12-18T04:08:57;99751.16;;;-0.55;100.00
56182;BME280;51963;46.052;14.544;2022-12-18T04:11:25;99758.94;;;-0.55;100.00
56182;BME280;51963;46.052;14.544;2022-12-18T04:13:55;99750.13;;;-0.68;100.00
56182;BME280;51963;46.052;14.544;2022-12-18T04:16:22;99747.69;;;-0.71;100.00
56182;BME280;51963;46.052;14.544;2022-12-18T04:18:51;99749.69;;;-0.77;100.00
56182;BME280;51963;46.052;14.544;2022-12-18T04:21:19;99752.47;;;-0.80;100.00
56182;BME280;51963;46.052;14.544;2022-12-18T04:23:46;99748.19;;;-0.81;100.00
56182;BME280;51963;46.052;14.544;2022-12-18T04:26:12;99753.53;;;-0.84;100.00
56182;BME280;51963;46.052;14.544;2022-12-18T04:28:46;99754.94;;;-0.94;100.00
56182;BME280;51963;46.052;14.544;2022-12-18T04:31:12;99762.56;;;-0.91;100.00
56182;BME280;51963;46.052;14.544;2022-12-18T04:33:38;99752.44;;;-0.96;100.00
56182;BME280;51963;46.052;14.544;2022-12-18T04:36:05;99746.81;;;-1.04;100.00
56182;BME280;51963;46.052;14.544;2022-12-18T04:38:32;99755.72;;;-1.10;100.00
56182;BME280;51963;46.052;14.544;2022-12-18T04:41:04;99767.63;;;-1.06;100.00
56182;BME280;51963;46.052;14.544;2022-12-18T04:43:30;99763.53;;;-1.10;100.00
56182;BME280;51963;46.052;14.544;2022-12-18T04:46:08;99763.53;;;-1.10;100.00
56182;BME280;51963;46.052;14.544;2022-12-18T04:48:34;99761.03;;;-1.11;100.00
56182;BME280;51963;46.052;14.544;2022-12-18T04:51:01;99774.81;;;-1.11;100.00
56182;BME280;51963;46.052;14.544;2022-12-18T04:53:27;99787.66;;;-1.08;100.00
56182;BME280;51963;46.052;14.544;2022-12-18T04:56:12;99785.13;;;-1.09;100.00
56182;BME280;51963;46.052;14.544;2022-12-18T04:58:40;99796.72;;;-0.99;100.00
56182;BME280;51963;46.052;14.544;2022-12-18T05:01:07;99801.69;;;-0.94;100.00
56182;BME280;51963;46.052;14.544;2022-12-18T05:03:33;99795.25;;;-0.87;100.00
56182;BME280;51963;46.052;14.544;2022-12-18T05:05:59;99805.31;;;-0.81;100.00
56182;BME280;51963;46.052;14.544;2022-12-18T05:08:25;99815.94;;;-0.68;100.00
56182;BME280;51963;46.052;14.544;2022-12-18T05:10:58;99818.97;;;-0.60;100.00
56182;BME280;51963;46.052;14.544;2022-12-18T05:13:24;99824.81;;;-0.56;100.00
56182;BME280;51963;46.052;14.544;2022-12-18T05:15:53;99827.78;;;-0.46;100.00
56182;BME280;51963;46.052;14.544;2022-12-18T05:18:19;99825.84;;;-0.42;100.00
56182;BME280;51963;46.052;14.544;2022-12-18T05:20:45;99821.31;;;-0.55;100.00
56182;BME280;51963;46.052;14.544;2022-12-18T05:23:11;99826.72;;;-0.26;100.00
56182;BME280;51963;46.052;14.544;2022-12-18T05:25:36;99825.94;;;-0.28;100.00
56182;BME280;51963;46.052;14.544;2022-12-18T05:28:02;99823.69;;;-0.34;100.00
56182;BME280;51963;46.052;14.544;2022-12-18T05:30:27;99819.50;;;-0.37;100.00
56182;BME280;51963;46.052;14.544;2022-12-18T05:32:53;99818.81;;;-0.40;100.00
56182;BME280;51963;46.052;14.544;2022-12-18T05:35:20;99824.69;;;-0.37;100.00
56182;BME280;51963;46.052;14.544;2022-12-18T05:37:45;99830.88;;;-0.39;100.00
56182;BME280;51963;46.052;14.544;2022-12-18T05:40:11;99838.47;;;-0.19;100.00
56182;BME280;51963;46.052;14.544;2022-12-18T05:42:37;99831.91;;;-0.26;100.00
56182;BME280;51963;46.052;14.544;2022-12-18T05:45:04;99822.94;;;-0.36;100.00
56182;BME280;51963;46.052;14.544;2022-12-18T05:47:30;99815.16;;;-0.20;100.00
56182;BME280;51963;46.052;14.544;2022-12-18T05:49:56;99827.41;;;-0.22;100.00
56182;BME280;51963;46.052;14.544;2022-12-18T05:52:22;99824.28;;;-0.29;100.00
56182;BME280;51963;46.052;14.544;2022-12-18T05:54:48;99828.88;;;-0.34;100.00
56182;BME280;51963;46.052;14.544;2022-12-18T05:57:13;99829.22;;;-0.40;100.00
56182;BME280;51963;46.052;14.544;2022-12-18T05:59:39;99841.47;;;-0.26;100.00
56182;BME280;51963;46.052;14.544;2022-12-18T06:02:05;99847.94;;;-0.34;100.00
56182;BME280;51963;46.052;14.544;2022-12-18T06:04:31;99855.88;;;-0.37;100.00
56182;BME280;51963;46.052;14.544;2022-12-18T06:06:57;99849.00;;;-0.38;100.00
56182;BME280;51963;46.052;14.544;2022-12-18T06:09:23;99857.88;;;-0.42;100.00
56182;BME280;51963;46.052;14.544;2022-12-18T06:11:51;99861.41;;;-0.43;100.00
56182;BME280;51963;46.052;14.544;2022-12-18T06:14:17;99862.06;;;-0.39;100.00
56182;BME280;51963;46.052;14.544;2022-12-18T06:16:42;99863.09;;;-0.42;100.00
56182;BME280;51963;46.052;14.544;2022-12-18T06:19:14;99853.13;;;-0.18;100.00
56182;BME280;51963;46.052;14.544;2022-12-18T06:21:40;99862.28;;;-0.10;100.00
56182;BME280;51963;46.052;14.544;2022-12-18T06:24:06;99863.78;;;-0.06;100.00
56182;BME280;51963;46.052;14.544;2022-12-18T06:26:32;99866.53;;;0.08;100.00
56182;BME280;51963;46.052;14.544;2022-12-18T06:28:58;99865.41;;;-0.04;100.00
56182;BME280;51963;46.052;14.544;2022-12-18T06:31:24;99861.25;;;-0.40;100.00
56182;BME280;51963;46.052;14.544;2022-12-18T06:33:49;99856.91;;;-0.23;100.00
56182;BME280;51963;46.052;14.544;2022-12-18T06:36:15;99860.28;;;-0.05;100.00
56182;BME280;51963;46.052;14.544;2022-12-18T06:38:43;99862.59;;;-0.17;100.00
56182;BME280;51963;46.052;14.544;2022-12-18T06:41:17;99877.59;;;-0.38;100.00
56182;BME280;51963;46.052;14.544;2022-12-18T06:43:44;99874.63;;;-0.48;100.00
56182;BME280;51963;46.052;14.544;2022-12-18T06:46:10;99878.47;;;-0.55;100.00
56182;BME280;51963;46.052;14.544;2022-12-18T06:48:36;99881.63;;;-0.66;100.00
56182;BME280;51963;46.052;14.544;2022-12-18T06:51:02;99897.75;;;-0.77;100.00
56182;BME280;51963;46.052;14.544;2022-12-18T06:53:28;99899.56;;;-0.96;100.00
56182;BME280;51963;46.052;14.544;2022-12-18T06:56:03;99892.56;;;-0.94;100.00
56182;BME280;51963;46.052;14.544;2022-12-18T06:58:28;99892.25;;;-0.88;100.00
56182;BME280;51963;46.052;14.544;2022-12-18T07:01:02;99901.56;;;-0.66;100.00
56182;BME280;51963;46.052;14.544;2022-12-18T07:03:29;99909.75;;;-0.40;100.00
56182;BME280;51963;46.052;14.544;2022-12-18T07:05:54;99915.09;;;-0.26;100.00
56182;BME280;51963;46.052;14.544;2022-12-18T07:08:20;99903.97;;;-0.46;100.00
56182;BME280;51963;46.052;14.544;2022-12-18T07:10:49;99921.25;;;-0.45;100.00
56182;BME280;51963;46.052;14.544;2022-12-18T07:13:15;99913.78;;;-0.68;100.00
56182;BME280;51963;46.052;14.544;2022-12-18T07:15:42;99921.56;;;-0.68;100.00
56182;BME280;51963;46.052;14.544;2022-12-18T07:18:08;99914.63;;;-0.68;100.00
56182;BME280;51963;46.052;14.544;2022-12-18T07:20:34;99902.94;;;-0.77;100.00
56182;BME280;51963;46.052;14.544;2022-12-18T07:23:05;99919.22;;;-0.55;100.00
56182;BME280;51963;46.052;14.544;2022-12-18T07:25:34;99918.03;;;-0.50;100.00
56182;BME280;51963;46.052;14.544;2022-12-18T07:28:00;99921.22;;;-0.27;100.00
56182;BME280;51963;46.052;14.544;2022-12-18T07:30:26;99941.78;;;-0.22;100.00
56182;BME280;51963;46.052;14.544;2022-12-18T07:32:52;99947.00;;;-0.06;100.00
56182;BME280;51963;46.052;14.544;2022-12-18T07:35:18;99944.44;;;0.10;100.00
56182;BME280;51963;46.052;14.544;2022-12-18T07:37:44;99937.06;;;0.02;100.00
56182;BME280;51963;46.052;14.544;2022-12-18T07:40:10;99946.81;;;0.14;100.00
56182;BME280;51963;46.052;14.544;2022-12-18T07:42:36;99964.03;;;0.33;100.00
56182;BME280;51963;46.052;14.544;2022-12-18T07:45:02;99963.03;;;0.36;100.00
56182;BME280;51963;46.052;14.544;2022-12-18T07:47:29;99972.81;;;0.14;100.00
56182;BME280;51963;46.052;14.544;2022-12-18T07:49:56;99961.75;;;0.43;100.00
56182;BME280;51963;46.052;14.544;2022-12-18T07:52:21;99953.03;;;0.44;100.00
56182;BME280;51963;46.052;14.544;2022-12-18T07:54:47;99968.41;;;0.49;100.00
56182;BME280;51963;46.052;14.544;2022-12-18T07:57:16;99984.16;;;0.29;100.00
56182;BME280;51963;46.052;14.544;2022-12-18T07:59:42;99994.75;;;0.58;100.00
56182;BME280;51963;46.052;14.544;2022-12-18T08:02:08;99998.81;;;0.64;100.00
56182;BME280;51963;46.052;14.544;2022-12-18T08:04:34;99993.44;;;0.67;100.00
56182;BME280;51963;46.052;14.544;2022-12-18T08:07:00;99999.31;;;0.55;100.00
56182;BME280;51963;46.052;14.544;2022-12-18T08:09:25;100004.50;;;0.55;100.00
56182;BME280;51963;46.052;14.544;2022-12-18T08:11:52;100006.69;;;0.79;100.00
56182;BME280;51963;46.052;14.544;2022-12-18T08:14:18;100007.53;;;0.95;100.00
56182;BME280;51963;46.052;14.544;2022-12-18T08:16:43;100011.88;;;0.95;100.00
56182;BME280;51963;46.052;14.544;2022-12-18T08:19:09;100008.69;;;1.06;100.00
56182;BME280;51963;46.052;14.544;2022-12-18T08:21:35;100005.50;;;1.00;100.00
56182;BME280;51963;46.052;14.544;2022-12-18T08:24:01;100008.88;;;0.70;100.00
56182;BME280;51963;46.052;14.544;2022-12-18T08:26:28;100007.13;;;0.87;100.00
56182;BME280;51963;46.052;14.544;2022-12-18T08:28:55;100006.59;;;0.80;100.00
56182;BME280;51963;46.052;14.544;2022-12-18T08:31:22;100012.22;;;0.88;100.00
56182;BME280;51963;46.052;14.544;2022-12-18T08:33:50;100016.09;;;0.81;100.00
56182;BME280;51963;46.052;14.544;2022-12-18T08:36:16;100012.75;;;0.95;100.00
56182;BME280;51963;46.052;14.544;2022-12-18T08:38:43;100011.38;;;1.04;100.00
56182;BME280;51963;46.052;14.544;2022-12-18T08:41:11;100019.97;;;0.90;100.00
56182;BME280;51963;46.052;14.544;2022-12-18T08:43:37;100014.56;;;1.09;100.00
56182;BME280;51963;46.052;14.544;2022-12-18T08:46:24;100007.84;;;1.66;100.00
56182;BME280;51963;46.052;14.544;2022-12-18T08:48:51;100008.72;;;2.54;100.00
56182;BME280;51963;46.052;14.544;2022-12-18T08:51:18;100009.66;;;3.49;100.00
56182;BME280;51963;46.052;14.544;2022-12-18T08:53:44;100020.75;;;3.79;100.00
56182;BME280;51963;46.052;14.544;2022-12-18T08:56:11;100022.25;;;4.72;100.00
56182;BME280;51963;46.052;14.544;2022-12-18T08:58:37;100034.25;;;4.50;100.00
56182;BME280;51963;46.052;14.544;2022-12-18T09:01:05;100035.44;;;4.20;100.00
56182;BME280;51963;46.052;14.544;2022-12-18T09:03:31;100046.41;;;3.33;100.00
56182;BME280;51963;46.052;14.544;2022-12-18T09:05:58;100036.72;;;3.08;100.00
56182;BME280;51963;46.052;14.544;2022-12-18T09:08:25;100037.84;;;3.04;100.00
56182;BME280;51963;46.052;14.544;2022-12-18T09:10:51;100043.91;;;3.85;100.00
56182;BME280;51963;46.052;14.544;2022-12-18T09:13:18;100042.66;;;3.91;100.00
56182;BME280;51963;46.052;14.544;2022-12-18T09:15:46;100043.25;;;3.69;100.00
56182;BME280;51963;46.052;14.544;2022-12-18T09:18:13;100032.31;;;4.02;100.00
56182;BME280;51963;46.052;14.544;2022-12-18T09:20:40;100043.25;;;3.69;100.00
56182;BME280;51963;46.052;14.544;2022-12-18T09:23:06;100051.97;;;3.42;100.00
56182;BME280;51963;46.052;14.544;2022-12-18T09:25:33;100047.50;;;3.16;100.00
56182;BME280;51963;46.052;14.544;2022-12-18T09:28:05;100045.22;;;2.97;100.00
56182;BME280;51963;46.052;14.544;2022-12-18T09:30:31;100048.78;;;2.82;100.00
56182;BME280;51963;46.052;14.544;2022-12-18T09:33:00;100058.91;;;2.59;100.00
56182;BME280;51963;46.052;14.544;2022-12-18T09:35:26;100051.44;;;2.67;100.00
56182;BME280;51963;46.052;14.544;2022-12-18T09:37:53;100051.06;;;2.59;100.00
56182;BME280;51963;46.052;14.544;2022-12-18T09:40:22;100042.50;;;2.57;100.00
56182;BME280;51963;46.052;14.544;2022-12-18T09:42:54;100047.03;;;2.53;100.00
56182;BME280;51963;46.052;14.544;2022-12-18T09:45:22;100041.38;;;2.46;100.00
56182;BME280;51963;46.052;14.544;2022-12-18T09:47:49;100045.47;;;2.51;100.00
56182;BME280;51963;46.052;14.544;2022-12-18T09:50:31;100050.03;;;2.32;100.00
56182;BME280;51963;46.052;14.544;2022-12-18T09:53:04;100049.22;;;2.32;100.00
56182;BME280;51963;46.052;14.544;2022-12-18T09:55:34;100025.78;;;1.87;100.00
56182;BME280;51963;46.052;14.544;2022-12-18T09:58:07;100046.22;;;2.09;100.00
56182;BME280;51963;46.052;14.544;2022-12-18T10:00:38;100051.81;;;2.61;100.00
56182;BME280;51963;46.052;14.544;2022-12-18T10:03:13;100045.09;;;2.71;100.00
56182;BME280;51963;46.052;14.544;2022-12-18T10:08:34;100044.28;;;2.98;100.00
56182;BME280;51963;46.052;14.544;2022-12-18T10:13:58;100040.97;;;2.67;100.00
56182;BME280;51963;46.052;14.544;2022-12-18T10:19:05;100033.06;;;2.40;100.00
56182;BME280;51963;46.052;14.544;2022-12-18T10:27:18;100025.63;;;2.33;100.00
56182;BME280;51963;46.052;14.544;2022-12-18T10:29:47;100033.19;;;2.09;100.00
56182;BME280;51963;46.052;14.544;2022-12-18T10:32:19;100022.72;;;1.95;100.00
56182;BME280;51963;46.052;14.544;2022-12-18T10:34:47;100026.44;;;1.90;100.00
56182;BME280;51963;46.052;14.544;2022-12-18T10:37:22;100021.59;;;1.84;99.57
56182;BME280;51963;46.052;14.544;2022-12-18T10:42:33;100013.94;;;1.81;99.18
56182;BME280;51963;46.052;14.544;2022-12-18T10:45:08;100010.66;;;1.78;96.91
56182;BME280;51963;46.052;14.544;2022-12-18T10:47:34;100008.34;;;1.73;92.76
56182;BME280;51963;46.052;14.544;2022-12-18T10:50:00;100002.81;;;1.63;89.05
56182;BME280;51963;46.052;14.544;2022-12-18T10:52:27;100009.63;;;1.66;91.30
56182;BME280;51963;46.052;14.544;2022-12-18T10:54:58;100026.78;;;1.70;92.79
56182;BME280;51963;46.052;14.544;2022-12-18T10:57:34;100026.31;;;1.78;96.62
56182;BME280;51963;46.052;14.544;2022-12-18T11:00:22;100015.06;;;1.77;100.00
56182;BME280;51963;46.052;14.544;2022-12-18T11:02:49;100016.00;;;1.76;99.07
56182;BME280;51963;46.052;14.544;2022-12-18T11:05:31;100017.66;;;1.77;97.72
56182;BME280;51963;46.052;14.544;2022-12-18T11:07:58;100009.13;;;1.89;97.11
56182;BME280;51963;46.052;14.544;2022-12-18T11:10:36;100021.78;;;1.81;100.00
56182;BME280;51963;46.052;14.544;2022-12-18T11:13:32;100017.19;;;1.85;100.00
56182;BME280;51963;46.052;14.544;2022-12-18T11:15:59;100012.94;;;1.98;97.83
56182;BME280;51963;46.052;14.544;2022-12-18T11:20:54;100012.31;;;2.09;95.77
56182;BME280;51963;46.052;14.544;2022-12-18T11:23:22;100005.97;;;2.13;94.60
56182;BME280;51963;46.052;14.544;2022-12-18T11:26:00;100003.34;;;1.99;94.93
56182;BME280;51963;46.052;14.544;2022-12-18T11:28:34;99985.34;;;1.94;93.39
56182;BME280;51963;46.052;14.544;2022-12-18T11:31:25;99996.47;;;1.98;94.66
56182;BME280;51963;46.052;14.544;2022-12-18T11:34:01;99985.81;;;1.72;94.63
56182;BME280;51963;46.052;14.544;2022-12-18T11:36:36;99997.91;;;1.73;94.99
56182;BME280;51963;46.052;14.544;2022-12-18T11:39:14;100005.09;;;1.84;95.17
56182;BME280;51963;46.052;14.544;2022-12-18T11:41:54;100001.66;;;1.83;94.74
56182;BME280;51963;46.052;14.544;2022-12-18T11:47:33;99993.53;;;1.73;96.93
56182;BME280;51963;46.052;14.544;2022-12-18T11:50:01;99978.72;;;1.74;97.16
56182;BME280;51963;46.052;14.544;2022-12-18T11:52:39;99985.63;;;1.75;97.79
56182;BME280;51963;46.052;14.544;2022-12-18T11:55:14;99982.44;;;1.70;96.57
56182;BME280;51963;46.052;14.544;2022-12-18T11:57:54;99977.41;;;1.67;98.23
56182;BME280;51963;46.052;14.544;2022-12-18T12:00:24;99980.97;;;1.66;98.57
56182;BME280;51963;46.052;14.544;2022-12-18T12:06:45;99988.66;;;1.67;98.96
56182;BME280;51963;46.052;14.544;2022-12-18T12:08:49;99995.28;;;1.58;97.57
56182;BME280;51963;46.052;14.544;2022-12-18T12:14:39;99995.63;;;1.52;98.41
56182;BME280;51963;46.052;14.544;2022-12-18T12:17:29;100005.13;;;1.53;98.88
56182;BME280;51963;46.052;14.544;2022-12-18T12:22:58;99987.25;;;1.47;98.53
56182;BME280;51963;46.052;14.544;2022-12-18T12:26:03;99995.81;;;1.49;100.00
56182;BME280;51963;46.052;14.544;2022-12-18T12:34:04;99981.84;;;1.50;95.79
56182;BME280;51963;46.052;14.544;2022-12-18T12:39:18;99992.47;;;1.47;93.99
56182;BME280;51963;46.052;14.544;2022-12-18T12:41:46;99985.19;;;1.38;94.88
56182;BME280;51963;46.052;14.544;2022-12-18T12:44:35;99992.13;;;1.37;95.59
56182;BME280;51963;46.052;14.544;2022-12-18T12:47:08;99999.94;;;1.53;95.16
56182;BME280;51963;46.052;14.544;2022-12-18T12:49:37;100002.88;;;1.47;94.46
56182;BME280;51963;46.052;14.544;2022-12-18T12:52:07;99979.78;;;1.41;96.64
56182;BME280;51963;46.052;14.544;2022-12-18T12:54:36;99978.34;;;1.35;95.61
56182;BME280;51963;46.052;14.544;2022-12-18T13:02:56;99984.78;;;1.29;97.45
56182;BME280;51963;46.052;14.544;2022-12-18T13:05:38;99977.03;;;1.28;96.49
56182;BME280;51963;46.052;14.544;2022-12-18T13:08:07;99977.50;;;1.20;96.30
56182;BME280;51963;46.052;14.544;2022-12-18T13:10:39;99986.41;;;1.16;96.67
56182;BME280;51963;46.052;14.544;2022-12-18T13:13:10;99987.75;;;1.23;96.28
56182;BME280;51963;46.052;14.544;2022-12-18T13:16:03;99992.94;;;1.23;96.98
56182;BME280;51963;46.052;14.544;2022-12-18T13:18:28;100000.75;;;1.23;96.29
56182;BME280;51963;46.052;14.544;2022-12-18T13:23:27;100007.25;;;1.16;96.74
56182;BME280;51963;46.052;14.544;2022-12-18T13:34:17;100018.78;;;1.12;95.78
56182;BME280;51963;46.052;14.544;2022-12-18T13:36:43;100017.09;;;1.11;96.09
56182;BME280;51963;46.052;14.544;2022-12-18T13:41:36;100017.16;;;1.09;96.13
56182;BME280;51963;46.052;14.544;2022-12-18T13:44:34;100026.31;;;1.16;96.02
56182;BME280;51963;46.052;14.544;2022-12-18T13:47:02;100022.97;;;1.14;97.67
56182;BME280;51963;46.052;14.544;2022-12-18T13:49:42;100018.44;;;1.18;96.26
56182;BME280;51963;46.052;14.544;2022-12-18T13:52:33;100020.09;;;1.19;94.65
56182;BME280;51963;46.052;14.544;2022-12-18T13:55:05;100016.75;;;1.17;94.99
56182;BME280;51963;46.052;14.544;2022-12-18T13:57:37;100014.31;;;1.14;94.27
56182;BME280;51963;46.052;14.544;2022-12-18T14:02:51;100032.44;;;1.15;96.16
56182;BME280;51963;46.052;14.544;2022-12-18T14:05:33;100022.13;;;1.14;96.28
56182;BME280;51963;46.052;14.544;2022-12-18T14:08:13;100018.94;;;1.09;96.42
56182;BME280;51963;46.052;14.544;2022-12-18T14:10:48;100019.69;;;1.11;97.15
56182;BME280;51963;46.052;14.544;2022-12-18T14:13:26;100029.19;;;1.12;95.04
56182;BME280;51963;46.052;14.544;2022-12-18T14:15:53;100032.03;;;1.07;94.83
56182;BME280;51963;46.052;14.544;2022-12-18T14:20:47;100032.72;;;1.11;95.80
56182;BME280;51963;46.052;14.544;2022-12-18T14:25:51;100024.41;;;1.04;97.33
56182;BME280;51963;46.052;14.544;2022-12-18T14:28:17;100033.22;;;1.01;96.47